Time;durP1;ratioP1;P1;durP2;ratioP2;P2;SDS_P1;SDS_P2;PMS_P1;PMS_P2;Temp;Humidity;BMP_temperature;BMP_pressure;BME280_temperature;BME280_humidity;BME280_pressure;Samples;Min_cycle;Max_cycle;Signal;HPM_P1;HPM_P2
2022/06/20 00:02:18;;;;;;;6.57;1.92;;;;;;;;;;5101625;27;20147;-85
2022/06/20 00:04:44;;;;;;;8.77;2.17;;;;;;;;;;5098947;27;20494;-84
2022/06/20 00:07:12;;;;;;;5.63;2.00;;;;;;;;;;5109787;27;20043;-84
2022/06/20 00:09:38;;;;;;;6.25;2.30;;;;;;;;;;5106777;27;20047;-84
2022/06/20 00:12:04;;;;;;;5.95;1.73;;;;;;;;;;5102744;27;20035;-84
2022/06/20 00:14:31;;;;;;;8.77;2.50;;;;;;;;;;5129469;27;20067;-84
2022/06/20 00:16:57;;;;;;;6.03;2.00;;;;;;;;;;5118642;27;20038;-84
2022/06/20 00:19:23;;;;;;;5.20;2.13;;;;;;;;;;5106182;27;20043;-84
2022/06/20 00:21:49;;;;;;;7.35;2.10;;;;;;;;;;5126108;27;20039;-84
2022/06/20 00:24:16;;;;;;;6.70;1.90;;;;;;;;;;5116671;27;20035;-84
2022/06/20 00:26:42;;;;;;;8.30;2.60;;;;;;;;;;5110361;27;20511;-85
2022/06/20 00:29:11;;;;;;;6.03;1.95;;;;;;;;;;5104513;27;20313;-84
2022/06/20 00:31:37;;;;;;;7.10;2.30;;;;;;;;;;5119177;27;20114;-84
2022/06/20 00:34:03;;;;;;;10.82;2.80;;;;;;;;;;5128965;27;20038;-85
2022/06/20 00:36:30;;;;;;;7.70;2.53;;;;;;;;;;5100455;27;20069;-84
2022/06/20 00:38:57;;;;;;;6.18;2.30;;;;;;;;;;5106521;27;20074;-85
2022/06/20 00:41:33;;;;;;;5.72;2.03;;;;;;;;;;5110528;27;20202;-85
2022/06/20 00:44:01;;;;;;;7.53;2.28;;;;;;;;;;5096860;27;20247;-85
2022/06/20 00:46:38;;;;;;;6.50;1.88;;;;;;;;;;5126369;27;20315;-84
2022/06/20 00:49:22;;;;;;;4.97;2.08;;;;;;;;;;5123465;27;20490;-85
2022/06/20 00:51:51;;;;;;;7.35;2.03;;;;;;;;;;5098943;27;20256;-85
2022/06/20 00:54:22;;;;;;;5.97;2.25;;;;;;;;;;5128306;27;20039;-84
2022/06/20 00:56:50;;;;;;;7.22;2.60;;;;;;;;;;5105731;27;20042;-84
2022/06/20 00:59:19;;;;;;;9.20;2.35;;;;;;;;;;5117664;27;20042;-84
2022/06/20 01:01:45;;;;;;;6.47;2.17;;;;;;;;;;5128980;27;20038;-84
2022/06/20 01:04:38;;;;;;;7.95;2.17;;;;;;;;;;5118376;27;20413;-84
2022/06/20 01:07:07;;;;;;;7.53;2.50;;;;;;;;;;5114196;27;20628;-84
2022/06/20 01:09:35;;;;;;;4.68;1.98;;;;;;;;;;5130253;27;20046;-83
2022/06/20 01:12:04;;;;;;;6.85;2.42;;;;;;;;;;5118011;27;20035;-84
2022/06/20 01:14:37;;;;;;;5.88;2.20;;;;;;;;;;5122315;27;20035;-84
2022/06/20 01:17:05;;;;;;;8.68;2.67;;;;;;;;;;5127042;27;20053;-83
2022/06/20 01:19:40;;;;;;;7.70;2.85;;;;;;;;;;5115301;27;20050;-83
2022/06/20 01:22:17;;;;;;;11.90;2.63;;;;;;;;;;5124039;27;20062;-84
2022/06/20 01:24:51;;;;;;;4.85;2.33;;;;;;;;;;5125647;27;20122;-84
2022/06/20 01:27:31;;;;;;;4.90;2.17;;;;;;;;;;5115552;27;20444;-84
2022/06/20 01:29:58;;;;;;;8.52;3.20;;;;;;;;;;5131661;27;20051;-84
2022/06/20 01:32:24;;;;;;;7.97;3.28;;;;;;;;;;5102663;27;20039;-84
2022/06/20 01:34:51;;;;;;;8.93;3.30;;;;;;;;;;5127344;27;20419;-84
2022/06/20 01:37:25;;;;;;;10.13;3.20;;;;;;;;;;5098485;27;20439;-83
2022/06/20 01:40:12;;;;;;;6.43;3.03;;;;;;;;;;5123251;27;20043;-83
2022/06/20 01:42:39;;;;;;;9.15;3.00;;;;;;;;;;5110047;27;20045;-83
2022/06/20 01:45:57;;;;;;;9.80;3.15;;;;;;;;;;5097942;27;20038;-84
2022/06/20 01:48:01;;;;;;;5.57;2.50;;;;;;;;;;5120637;27;20049;-84
2022/06/20 01:50:28;;;;;;;8.63;2.95;;;;;;;;;;5126198;27;20119;-84
2022/06/20 01:52:54;;;;;;;5.50;2.80;;;;;;;;;;5114918;27;20043;-84
2022/06/20 01:55:24;;;;;;;8.27;3.60;;;;;;;;;;5108022;28;20082;-84
2022/06/20 01:57:52;;;;;;;10.48;3.25;;;;;;;;;;5121959;27;20050;-84
2022/06/20 02:00:23;;;;;;;7.93;2.97;;;;;;;;;;5117170;27;20047;-84
2022/06/20 02:02:52;;;;;;;7.53;2.72;;;;;;;;;;5115353;27;20054;-84
2022/06/20 02:05:20;;;;;;;7.25;2.80;;;;;;;;;;5105581;27;20087;-84
2022/06/20 02:07:47;;;;;;;7.53;2.65;;;;;;;;;;5106416;27;20035;-84
2022/06/20 02:10:27;;;;;;;7.13;2.80;;;;;;;;;;5131389;27;20039;-84
2022/06/20 02:12:54;;;;;;;8.00;2.88;;;;;;;;;;5100033;27;20176;-84
2022/06/20 02:15:21;;;;;;;6.60;2.58;;;;;;;;;;5124295;27;20042;-83
2022/06/20 02:17:48;;;;;;;6.72;2.85;;;;;;;;;;5122239;27;20518;-83
2022/06/20 02:20:18;;;;;;;7.55;3.10;;;;;;;;;;5114449;27;20041;-83
2022/06/20 02:22:44;;;;;;;9.80;3.20;;;;;;;;;;5120401;27;20398;-83
2022/06/20 02:25:14;;;;;;;5.13;2.50;;;;;;;;;;5126155;27;20039;-84
2022/06/20 02:27:42;;;;;;;6.63;2.72;;;;;;;;;;5111891;27;20042;-84
2022/06/20 02:30:10;;;;;;;7.10;2.75;;;;;;;;;;5097838;27;20051;-84
2022/06/20 02:32:38;;;;;;;7.70;3.00;;;;;;;;;;5126313;27;20514;-84
2022/06/20 02:35:06;;;;;;;7.35;2.80;;;;;;;;;;5121187;27;20054;-84
2022/06/20 02:37:34;;;;;;;5.80;2.60;;;;;;;;;;5100828;28;20149;-84
2022/06/20 02:40:02;;;;;;;9.52;2.83;;;;;;;;;;5110562;27;20311;-84
2022/06/20 02:42:34;;;;;;;7.15;2.50;;;;;;;;;;5083053;27;20092;-84
2022/06/20 02:45:01;;;;;;;5.60;2.60;;;;;;;;;;5103957;28;20047;-84
2022/06/20 02:47:29;;;;;;;7.43;2.97;;;;;;;;;;5108785;27;20100;-84
2022/06/20 02:49:56;;;;;;;9.27;2.90;;;;;;;;;;5095414;28;20424;-84
2022/06/20 02:52:30;;;;;;;8.75;3.15;;;;;;;;;;5100658;27;20043;-84
2022/06/20 02:54:56;;;;;;;8.35;2.95;;;;;;;;;;5086132;28;20460;-84
2022/06/20 02:57:30;;;;;;;8.85;3.30;;;;;;;;;;5092458;27;20084;-84
2022/06/20 02:59:56;;;;;;;7.15;2.80;;;;;;;;;;5110371;28;20490;-84
2022/06/20 03:02:27;;;;;;;8.25;3.17;;;;;;;;;;5084701;27;20039;-84
2022/06/20 03:04:53;;;;;;;9.13;3.10;;;;;;;;;;5102168;28;20082;-84
2022/06/20 03:07:21;;;;;;;9.52;3.15;;;;;;;;;;5086883;28;20518;-84
2022/06/20 03:09:50;;;;;;;7.07;3.22;;;;;;;;;;5079428;27;20072;-84
2022/06/20 03:12:16;;;;;;;8.27;3.45;;;;;;;;;;5101571;27;20118;-84
2022/06/20 03:14:47;;;;;;;5.57;2.65;;;;;;;;;;5101770;28;20451;-84
2022/06/20 03:17:15;;;;;;;7.70;3.20;;;;;;;;;;5109655;27;20039;-84
2022/06/20 03:19:42;;;;;;;7.95;3.20;;;;;;;;;;5098347;27;20122;-84
2022/06/20 03:22:11;;;;;;;8.77;2.83;;;;;;;;;;5122305;27;20036;-83
2022/06/20 03:24:38;;;;;;;8.27;3.10;;;;;;;;;;5123755;27;20413;-83
2022/06/20 03:27:06;;;;;;;8.43;2.88;;;;;;;;;;5096864;27;20570;-83
2022/06/20 03:29:34;;;;;;;6.15;2.95;;;;;;;;;;5125486;27;20119;-83
2022/06/20 03:32:01;;;;;;;6.78;3.10;;;;;;;;;;5084802;27;20031;-84
2022/06/20 03:34:27;;;;;;;7.32;2.70;;;;;;;;;;5117769;27;20119;-83
2022/06/20 03:36:53;;;;;;;7.22;3.10;;;;;;;;;;5076972;27;20040;-83
2022/06/20 03:39:20;;;;;;;7.63;2.88;;;;;;;;;;5111925;28;20384;-83
2022/06/20 03:41:47;;;;;;;7.15;2.88;;;;;;;;;;5103411;27;20047;-83
2022/06/20 03:44:18;;;;;;;7.57;3.00;;;;;;;;;;5102496;28;20036;-83
2022/06/20 03:46:53;;;;;;;5.68;3.08;;;;;;;;;;5109694;27;20122;-83
2022/06/20 03:49:27;;;;;;;7.50;2.70;;;;;;;;;;5076949;28;20075;-83
2022/06/20 03:51:59;;;;;;;6.90;3.33;;;;;;;;;;5105469;27;20031;-83
2022/06/20 03:54:28;;;;;;;6.65;2.80;;;;;;;;;;5098168;28;20444;-83
2022/06/20 03:56:57;;;;;;;6.85;2.90;;;;;;;;;;5095776;27;20285;-83
2022/06/20 03:59:26;;;;;;;5.13;2.92;;;;;;;;;;5122227;27;20039;-83
2022/06/20 04:01:58;;;;;;;7.45;2.80;;;;;;;;;;5121760;27;20047;-84
2022/06/20 04:04:30;;;;;;;5.95;3.03;;;;;;;;;;5113168;27;20109;-83
2022/06/20 04:07:04;;;;;;;8.75;3.03;;;;;;;;;;5107849;28;20040;-83
2022/06/20 04:12:36;;;;;;;7.38;3.30;;;;;;;;;;5113024;27;20067;-83
2022/06/20 04:15:09;;;;;;;7.25;2.97;;;;;;;;;;5105636;28;20410;-83
2022/06/20 04:20:40;;;;;;;7.57;2.78;;;;;;;;;;5096565;27;20047;-83
2022/06/20 04:23:15;;;;;;;6.15;2.60;;;;;;;;;;5086150;28;20051;-84
2022/06/20 04:25:41;;;;;;;;;;;;;;;;;;5080414;28;20070;-83
2022/06/20 04:28:15;;;;;;;7.80;3.30;;;;;;;;;;5108128;27;20306;-82
2022/06/20 04:31:02;;;;;;;7.30;3.22;;;;;;;;;;5081460;27;20123;-83
2022/06/20 04:33:39;;;;;;;7.53;3.10;;;;;;;;;;5116197;27;20176;-83
2022/06/20 04:36:23;;;;;;;9.32;3.15;;;;;;;;;;5108780;27;20042;-83
2022/06/20 04:38:57;;;;;;;8.70;3.22;;;;;;;;;;5117409;27;20058;-83
2022/06/20 04:41:59;;;;;;;7.30;3.33;;;;;;;;;;5115896;27;20057;-83
2022/06/20 04:44:45;;;;;;;6.30;2.88;;;;;;;;;;4980515;28;20484;-82
2022/06/20 04:47:25;;;;;;;7.30;3.15;;;;;;;;;;5057624;28;20411;-83
2022/06/20 04:49:52;;;;;;;6.78;3.10;;;;;;;;;;5123701;27;20058;-83
2022/06/20 04:52:20;;;;;;;8.02;3.40;;;;;;;;;;5115017;27;20410;-83
2022/06/20 04:54:46;;;;;;;5.72;3.05;;;;;;;;;;5118441;27;20353;-83
2022/06/20 04:57:13;;;;;;;6.80;3.03;;;;;;;;;;5107685;27;20031;-83
2022/06/20 04:59:39;;;;;;;6.40;3.13;;;;;;;;;;5100268;27;20032;-83
2022/06/20 05:02:07;;;;;;;5.63;2.92;;;;;;;;;;5129052;27;20038;-83
2022/06/20 05:04:37;;;;;;;8.52;3.28;;;;;;;;;;5085029;28;20105;-83
2022/06/20 05:07:15;;;;;;;7.93;3.08;;;;;;;;;;5122746;27;20092;-83
2022/06/20 05:09:45;;;;;;;8.25;3.70;;;;;;;;;;5112492;27;20501;-82
2022/06/20 05:12:15;;;;;;;8.10;3.38;;;;;;;;;;5103470;28;20259;-82
2022/06/20 05:15:04;;;;;;;11.95;4.25;;;;;;;;;;5121015;27;20117;-83
2022/06/20 05:17:32;;;;;;;8.45;3.35;;;;;;;;;;5099600;27;20043;-83
2022/06/20 05:20:01;;;;;;;8.52;4.18;;;;;;;;;;5104617;28;20044;-82
2022/06/20 05:22:29;;;;;;;8.10;3.97;;;;;;;;;;5075097;28;20079;-83
2022/06/20 05:24:57;;;;;;;9.23;4.30;;;;;;;;;;5108301;27;20417;-83
2022/06/20 05:27:26;;;;;;;9.60;4.38;;;;;;;;;;5105560;28;20032;-83
2022/06/20 05:29:54;;;;;;;13.27;4.47;;;;;;;;;;5100233;28;20118;-82
2022/06/20 05:32:33;;;;;;;10.18;4.22;;;;;;;;;;5110196;28;20074;-83
2022/06/20 05:35:02;;;;;;;12.20;4.80;;;;;;;;;;5093207;27;20032;-84
2022/06/20 05:37:31;;;;;;;9.20;3.83;;;;;;;;;;5105724;28;20074;-83
2022/06/20 05:40:00;;;;;;;11.27;4.40;;;;;;;;;;5098198;28;20047;-83
2022/06/20 05:42:26;;;;;;;13.07;4.95;;;;;;;;;;5092341;28;20070;-83
2022/06/20 05:44:53;;;;;;;11.80;5.00;;;;;;;;;;5093575;27;20047;-84
2022/06/20 05:47:19;;;;;;;14.30;5.20;;;;;;;;;;5079972;28;20518;-82
2022/06/20 05:49:50;;;;;;;14.90;5.18;;;;;;;;;;5076049;28;20122;-84
2022/06/20 05:52:19;;;;;;;15.32;4.75;;;;;;;;;;5094168;28;20042;-83
2022/06/20 05:54:53;;;;;;;16.92;5.25;;;;;;;;;;5078991;28;20073;-84
2022/06/20 05:57:21;;;;;;;12.55;5.18;;;;;;;;;;5088134;28;20047;-84
2022/06/20 06:00:01;;;;;;;10.40;4.65;;;;;;;;;;5099553;28;20104;-83
2022/06/20 06:02:42;;;;;;;10.52;4.35;;;;;;;;;;5093903;28;20521;-82
2022/06/20 06:05:14;;;;;;;10.30;4.65;;;;;;;;;;5087821;28;20039;-83
2022/06/20 06:07:44;;;;;;;12.95;4.82;;;;;;;;;;5089523;28;20497;-83
2022/06/20 06:10:26;;;;;;;12.90;5.18;;;;;;;;;;5094776;28;20035;-82
2022/06/20 06:12:55;;;;;;;9.88;4.32;;;;;;;;;;5082546;28;20067;-84
2022/06/20 06:15:32;;;;;;;13.70;4.53;;;;;;;;;;5088972;28;20115;-82
2022/06/20 06:18:00;;;;;;;12.32;4.38;;;;;;;;;;5106873;28;20201;-86
2022/06/20 06:20:28;;;;;;;11.43;4.50;;;;;;;;;;5072484;28;20074;-82
2022/06/20 06:22:57;;;;;;;10.77;4.32;;;;;;;;;;5064987;28;20043;-84
2022/06/20 06:25:23;;;;;;;12.63;4.82;;;;;;;;;;5087569;28;20047;-85
2022/06/20 06:27:50;;;;;;;11.77;4.82;;;;;;;;;;5090543;28;20077;-85
2022/06/20 06:30:26;;;;;;;11.70;4.32;;;;;;;;;;5091080;28;20060;-84
2022/06/20 06:32:55;;;;;;;10.82;4.50;;;;;;;;;;5095833;28;20051;-84
2022/06/20 06:35:26;;;;;;;12.27;4.63;;;;;;;;;;5093686;28;20398;-83
2022/06/20 06:37:55;;;;;;;12.73;4.28;;;;;;;;;;5088255;28;20044;-83
2022/06/20 06:40:36;;;;;;;10.50;3.90;;;;;;;;;;5085694;28;20390;-83
2022/06/20 06:43:07;;;;;;;11.95;5.13;;;;;;;;;;5087989;28;20132;-84
2022/06/20 06:45:35;;;;;;;10.13;3.90;;;;;;;;;;5068136;28;20055;-86
2022/06/20 06:48:01;;;;;;;9.35;4.20;;;;;;;;;;5081238;27;20465;-82
2022/06/20 06:50:28;;;;;;;15.85;4.25;;;;;;;;;;5084201;27;20491;-81
2022/06/20 06:52:58;;;;;;;12.73;3.85;;;;;;;;;;5114523;27;20038;-83
2022/06/20 06:55:36;;;;;;;11.20;4.47;;;;;;;;;;5079168;28;20078;-83
2022/06/20 06:58:02;;;;;;;9.13;4.30;;;;;;;;;;5074317;28;20105;-83
2022/06/20 07:00:34;;;;;;;9.20;4.00;;;;;;;;;;5092225;27;20043;-82
2022/06/20 07:03:03;;;;;;;9.63;3.90;;;;;;;;;;5101195;28;20088;-82
2022/06/20 07:05:38;;;;;;;11.43;4.60;;;;;;;;;;5096394;27;20045;-80
2022/06/20 07:08:25;;;;;;;9.15;3.70;;;;;;;;;;5107671;28;20047;-82
2022/06/20 07:10:55;;;;;;;11.93;4.00;;;;;;;;;;5091264;27;20031;-82
2022/06/20 07:13:21;;;;;;;11.23;3.78;;;;;;;;;;5079236;28;20036;-81
2022/06/20 07:15:49;;;;;;;10.65;4.25;;;;;;;;;;5094627;28;20169;-82
2022/06/20 07:18:25;;;;;;;11.38;4.15;;;;;;;;;;5077258;27;20075;-83
2022/06/20 07:20:51;;;;;;;10.05;3.75;;;;;;;;;;5078882;27;20505;-85
2022/06/20 07:23:19;;;;;;;10.57;4.20;;;;;;;;;;5103996;27;20055;-83
2022/06/20 07:25:52;;;;;;;12.82;4.07;;;;;;;;;;5096170;28;20039;-82
2022/06/20 07:28:18;;;;;;;10.88;3.92;;;;;;;;;;5078920;28;20096;-81
2022/06/20 07:30:48;;;;;;;11.23;4.30;;;;;;;;;;5094238;28;20048;-84
2022/06/20 07:33:17;;;;;;;10.35;4.10;;;;;;;;;;5079127;28;20039;-84
2022/06/20 07:35:48;;;;;;;10.52;3.75;;;;;;;;;;5103112;27;20128;-81
2022/06/20 07:38:18;;;;;;;11.13;3.67;;;;;;;;;;5090717;27;20035;-82
2022/06/20 07:40:52;;;;;;;13.30;4.03;;;;;;;;;;5095078;28;20058;-86
2022/06/20 07:43:21;;;;;;;12.27;3.47;;;;;;;;;;5079442;27;20039;-81
2022/06/20 07:45:49;;;;;;;7.18;3.05;;;;;;;;;;5074219;28;20071;-83
2022/06/20 07:48:29;;;;;;;9.13;3.53;;;;;;;;;;5075774;28;20036;-83
2022/06/20 07:50:57;;;;;;;9.95;3.78;;;;;;;;;;5075724;28;20042;-82
2022/06/20 07:53:27;;;;;;;10.18;3.55;;;;;;;;;;5090477;28;20040;-79
2022/06/20 07:55:57;;;;;;;8.85;3.40;;;;;;;;;;5093109;28;20035;-82
2022/06/20 07:58:26;;;;;;;13.55;3.95;;;;;;;;;;5090724;28;20126;-82
2022/06/20 08:00:53;;;;;;;8.65;3.10;;;;;;;;;;5089260;28;20554;-85
2022/06/20 08:03:51;;;;;;;10.52;2.90;;;;;;;;;;5075074;28;20055;-82
2022/06/20 08:06:33;;;;;;;8.65;3.30;;;;;;;;;;5048331;28;20403;-84
2022/06/20 08:09:07;;;;;;;9.85;2.97;;;;;;;;;;5075152;28;20110;-84
2022/06/20 08:11:40;;;;;;;8.00;3.50;;;;;;;;;;5092005;27;20039;-81
2022/06/20 08:14:10;;;;;;;8.75;2.65;;;;;;;;;;5088146;28;20293;-83
2022/06/20 08:16:37;;;;;;;7.72;2.42;;;;;;;;;;5067838;28;20088;-82
2022/06/20 08:19:03;;;;;;;8.50;2.28;;;;;;;;;;5088353;28;20452;-83
2022/06/20 08:21:42;;;;;;;10.93;2.83;;;;;;;;;;5077487;28;20074;-82
2022/06/20 08:24:15;;;;;;;8.80;2.50;;;;;;;;;;5089663;27;20047;-82
2022/06/20 08:26:51;;;;;;;7.80;2.50;;;;;;;;;;5080063;28;20514;-81
2022/06/20 08:29:22;;;;;;;8.18;2.45;;;;;;;;;;5075532;28;20491;-83
2022/06/20 08:31:50;;;;;;;7.57;2.10;;;;;;;;;;5071972;28;20040;-81
2022/06/20 08:34:22;;;;;;;9.48;2.13;;;;;;;;;;5086597;28;20043;-81
2022/06/20 08:36:51;;;;;;;5.18;2.15;;;;;;;;;;5069754;28;20039;-84
2022/06/20 08:39:23;;;;;;;8.07;2.05;;;;;;;;;;5086081;28;20050;-82
2022/06/20 08:41:52;;;;;;;6.63;2.15;;;;;;;;;;5080619;27;20099;-83
2022/06/20 08:44:44;;;;;;;6.68;2.20;;;;;;;;;;5092305;28;20050;-84
2022/06/20 08:47:29;;;;;;;5.22;1.85;;;;;;;;;;5068605;28;20484;-82
2022/06/20 08:50:27;;;;;;;8.02;2.13;;;;;;;;;;5098441;27;20034;-79
2022/06/20 08:53:12;;;;;;;8.60;2.30;;;;;;;;;;5089071;28;20521;-82
2022/06/20 08:55:41;;;;;;;7.07;1.92;;;;;;;;;;5082706;27;20051;-79
2022/06/20 08:58:31;;;;;;;6.60;1.90;;;;;;;;;;5102269;28;20038;-81
2022/06/20 09:01:25;;;;;;;4.55;2.00;;;;;;;;;;5102227;28;20039;-81
2022/06/20 09:04:03;;;;;;;7.22;2.10;;;;;;;;;;5101461;27;20035;-78
2022/06/20 09:06:32;;;;;;;6.00;2.10;;;;;;;;;;5110874;27;20043;-78
2022/06/20 09:09:17;;;;;;;8.02;2.35;;;;;;;;;;5084403;28;20918;-80
2022/06/20 09:11:57;;;;;;;7.20;2.80;;;;;;;;;;5103315;28;20042;-79
2022/06/20 09:14:39;;;;;;;6.68;2.58;;;;;;;;;;5103246;28;20085;-79
2022/06/20 09:17:26;;;;;;;7.03;2.65;;;;;;;;;;5088550;28;20035;-77
2022/06/20 09:20:07;;;;;;;7.70;2.55;;;;;;;;;;5102143;28;20086;-82
2022/06/20 09:22:51;;;;;;;4.93;2.10;;;;;;;;;;5103541;27;20035;-80
2022/06/20 09:25:23;;;;;;;7.43;2.40;;;;;;;;;;5102993;27;20054;-80
2022/06/20 09:28:06;;;;;;;6.22;2.38;;;;;;;;;;5097369;27;20043;-80
2022/06/20 09:30:38;;;;;;;6.78;2.60;;;;;;;;;;5093331;28;20143;-79
2022/06/20 09:33:26;;;;;;;8.55;2.70;;;;;;;;;;5098956;28;20062;-79
2022/06/20 09:35:59;;;;;;;8.55;3.05;;;;;;;;;;5083374;28;20481;-83
2022/06/20 09:38:25;;;;;;;7.35;2.75;;;;;;;;;;5107023;28;20499;-82
2022/06/20 09:41:05;;;;;;;6.75;2.67;;;;;;;;;;5092365;27;20040;-85
2022/06/20 09:43:38;;;;;;;8.90;2.90;;;;;;;;;;5084809;28;20047;-82
2022/06/20 09:46:12;;;;;;;9.10;2.70;;;;;;;;;;5086086;28;20108;-82
2022/06/20 09:48:55;;;;;;;5.10;2.28;;;;;;;;;;5108425;28;20039;-83
2022/06/20 09:51:42;;;;;;;5.30;2.08;;;;;;;;;;5105959;28;20040;-83
2022/06/20 09:54:23;;;;;;;6.15;2.38;;;;;;;;;;5083173;28;20042;-83
2022/06/20 09:56:52;;;;;;;7.35;2.17;;;;;;;;;;5094465;28;20043;-84
2022/06/20 09:59:21;;;;;;;7.70;2.13;;;;;;;;;;5121037;28;20044;-83
2022/06/20 10:01:56;;;;;;;5.03;1.88;;;;;;;;;;5091819;28;20039;-83
2022/06/20 10:04:28;;;;;;;6.13;2.40;;;;;;;;;;5108979;28;20039;-82
2022/06/20 10:07:03;;;;;;;4.85;2.20;;;;;;;;;;5110375;28;20194;-83
2022/06/20 10:09:56;;;;;;;5.28;2.30;;;;;;;;;;5120231;28;20118;-84
2022/06/20 10:12:34;;;;;;;8.43;2.83;;;;;;;;;;5089730;28;20043;-80
2022/06/20 10:15:13;;;;;;;7.20;2.60;;;;;;;;;;5112954;28;20039;-83
2022/06/20 10:17:39;;;;;;;8.50;2.65;;;;;;;;;;5105487;28;20044;-81
2022/06/20 10:20:25;;;;;;;6.80;2.45;;;;;;;;;;5079578;28;20036;-80
2022/06/20 10:23:03;;;;;;;6.28;2.28;;;;;;;;;;5086811;28;20486;-79
2022/06/20 10:25:32;;;;;;;5.10;2.08;;;;;;;;;;5094052;28;20032;-78
2022/06/20 10:28:02;;;;;;;6.45;2.20;;;;;;;;;;5087354;28;20096;-78
2022/06/20 10:30:55;;;;;;;5.80;2.10;;;;;;;;;;5090569;28;20059;-80
2022/06/20 10:33:21;;;;;;;6.65;2.10;;;;;;;;;;5070652;28;20117;-80
2022/06/20 10:35:53;;;;;;;5.82;2.00;;;;;;;;;;5081622;28;20035;-80
2022/06/20 10:38:22;;;;;;;6.10;1.70;;;;;;;;;;5077617;28;20057;-81
2022/06/20 10:40:49;;;;;;;9.00;2.17;;;;;;;;;;5085750;28;20440;-78
2022/06/20 10:43:24;;;;;;;5.38;1.83;;;;;;;;;;5076088;28;20035;-79
2022/06/20 10:45:59;;;;;;;7.30;1.95;;;;;;;;;;5076553;27;20533;-84
2022/06/20 10:48:25;;;;;;;4.95;1.92;;;;;;;;;;5070290;28;20048;-78
2022/06/20 10:50:54;;;;;;;11.40;2.58;;;;;;;;;;5089136;28;20090;-78
2022/06/20 10:53:20;;;;;;;4.53;1.92;;;;;;;;;;5087321;28;20487;-78
2022/06/20 10:56:02;;;;;;;5.47;2.33;;;;;;;;;;5095324;27;20118;-81
2022/06/20 10:58:34;;;;;;;8.90;2.50;;;;;;;;;;5105052;28;20232;-78
2022/06/20 11:01:15;;;;;;;3.83;1.83;;;;;;;;;;5107916;27;20043;-79
2022/06/20 11:03:41;;;;;;;6.40;1.85;;;;;;;;;;5097454;27;20039;-78
2022/06/20 11:06:17;;;;;;;5.35;2.08;;;;;;;;;;5106249;27;20407;-79
2022/06/20 11:08:56;;;;;;;5.47;2.00;;;;;;;;;;5077255;28;20035;-79
2022/06/20 11:11:41;;;;;;;6.65;1.95;;;;;;;;;;5088740;27;20044;-79
2022/06/20 11:14:10;;;;;;;10.38;2.30;;;;;;;;;;5090975;28;20066;-79
2022/06/20 11:16:40;;;;;;;5.43;2.10;;;;;;;;;;5094615;28;20046;-79
2022/06/20 11:19:12;;;;;;;7.78;2.47;;;;;;;;;;5094841;27;20039;-78
2022/06/20 11:21:47;;;;;;;7.43;2.70;;;;;;;;;;5088182;28;20041;-80
2022/06/20 11:24:25;;;;;;;6.90;2.20;;;;;;;;;;5093015;28;20150;-78
2022/06/20 11:27:20;;;;;;;9.05;2.33;;;;;;;;;;5077486;28;20105;-79
2022/06/20 11:29:47;;;;;;;;;;;;;;;;;;5072067;27;20050;-80
2022/06/20 11:32:24;;;;;;;6.35;2.35;;;;;;;;;;5106629;28;19989;-81
2022/06/20 11:35:02;;;;;;;6.80;2.20;;;;;;;;;;5090667;28;20454;-82
2022/06/20 11:37:34;;;;;;;6.20;2.63;;;;;;;;;;5103312;27;20479;-81
2022/06/20 11:40:08;;;;;;;9.55;2.67;;;;;;;;;;5091918;28;20032;-83
2022/06/20 11:42:53;;;;;;;6.83;2.80;;;;;;;;;;5086318;28;20379;-82
2022/06/20 11:45:25;;;;;;;8.52;2.80;;;;;;;;;;5090171;28;20134;-82
2022/06/20 11:47:57;;;;;;;6.18;2.67;;;;;;;;;;5112502;27;20534;-81
2022/06/20 11:50:42;;;;;;;7.57;2.70;;;;;;;;;;5088165;28;20122;-82
2022/06/20 11:53:21;;;;;;;8.32;2.60;;;;;;;;;;5114680;27;20036;-82
2022/06/20 11:55:50;;;;;;;7.18;2.85;;;;;;;;;;5090607;27;20549;-80
2022/06/20 11:58:19;;;;;;;5.78;2.53;;;;;;;;;;5103394;27;20139;-80
2022/06/20 12:00:45;;;;;;;6.88;2.90;;;;;;;;;;5101222;27;20053;-79
2022/06/20 12:03:14;;;;;;;7.75;2.92;;;;;;;;;;5117237;27;20045;-80
2022/06/20 12:06:04;;;;;;;9.75;2.80;;;;;;;;;;5095298;27;20107;-81
2022/06/20 12:08:42;;;;;;;5.70;2.35;;;;;;;;;;5098916;28;20087;-78
2022/06/20 12:11:27;;;;;;;8.77;2.70;;;;;;;;;;5102542;27;20046;-78
2022/06/20 12:13:53;;;;;;;;;;;;;;;;;;5109026;27;20122;-80
2022/06/20 12:16:38;;;;;;;7.15;2.40;;;;;;;;;;5089960;28;20535;-79
2022/06/20 12:24:45;;;;;;;6.50;2.70;;;;;;;;;;5101260;28;20110;-82
2022/06/20 12:27:13;;;;;;;6.80;2.88;;;;;;;;;;5087536;27;20494;-81
2022/06/20 12:29:39;;;;;;;6.25;3.22;;;;;;;;;;5090898;28;20075;-81
2022/06/20 12:32:11;;;;;;;7.53;3.05;;;;;;;;;;5088242;28;20119;-80
2022/06/20 12:34:42;;;;;;;7.80;2.88;;;;;;;;;;5094136;28;20487;-82
2022/06/20 12:37:08;;;;;;;8.43;3.10;;;;;;;;;;5073282;28;20039;-82
2022/06/20 12:39:34;;;;;;;5.57;2.50;;;;;;;;;;5073751;28;20066;-80
2022/06/20 12:42:08;;;;;;;8.27;2.83;;;;;;;;;;5102122;27;20039;-81
2022/06/20 12:44:46;;;;;;;5.20;2.90;;;;;;;;;;5096704;28;20402;-79
2022/06/20 12:47:24;;;;;;;6.85;2.75;;;;;;;;;;5079638;27;20503;-81
2022/06/20 12:50:15;;;;;;;4.68;2.03;;;;;;;;;;5106231;27;20436;-81
2022/06/20 12:52:50;;;;;;;5.65;2.42;;;;;;;;;;5101096;28;20031;-81
2022/06/20 12:55:16;;;;;;;;;;;;;;;;;;5108365;27;20083;-81
2022/06/20 12:57:58;;;;;;;7.80;2.50;;;;;;;;;;5095672;27;20460;-83
2022/06/20 13:00:50;;;;;;;4.72;2.50;;;;;;;;;;5102236;28;20035;-82
2022/06/20 13:03:25;;;;;;;6.13;2.58;;;;;;;;;;5086726;27;20123;-81
2022/06/20 13:06:03;;;;;;;5.25;2.35;;;;;;;;;;5080435;27;20564;-82
2022/06/20 13:08:48;;;;;;;5.25;2.20;;;;;;;;;;5083853;28;20078;-79
2022/06/20 13:11:40;;;;;;;4.57;2.30;;;;;;;;;;5092324;28;20053;-81
2022/06/20 13:14:27;;;;;;;8.15;2.50;;;;;;;;;;5062260;27;20134;-80
2022/06/20 13:17:06;;;;;;;6.97;2.53;;;;;;;;;;5111741;27;20398;-79
2022/06/20 13:20:04;;;;;;;4.82;2.50;;;;;;;;;;5064014;27;20122;-79
2022/06/20 13:22:37;;;;;;;6.57;2.47;;;;;;;;;;4994787;28;20322;-80
2022/06/20 13:25:04;;;;;;;9.47;2.40;;;;;;;;;;5107785;28;20039;-81
2022/06/20 13:27:49;;;;;;;10.38;2.88;;;;;;;;;;5096253;27;20311;-80
2022/06/20 13:30:53;;;;;;;6.13;2.35;;;;;;;;;;5081134;28;20052;-79
2022/06/20 13:33:19;;;;;;;7.27;2.30;;;;;;;;;;4979327;28;20461;-83
2022/06/20 13:35:49;;;;;;;5.47;2.35;;;;;;;;;;4983980;28;20448;-81
2022/06/20 13:38:18;;;;;;;8.65;2.95;;;;;;;;;;5034494;28;20079;-77
2022/06/20 13:41:01;;;;;;;7.95;3.00;;;;;;;;;;5083469;28;20031;-76
2022/06/20 13:43:45;;;;;;;8.40;3.00;;;;;;;;;;5082811;28;20048;-77
2022/06/20 13:46:30;;;;;;;7.05;2.63;;;;;;;;;;5086255;28;20114;-77
2022/06/20 13:48:56;;;;;;;7.80;2.08;;;;;;;;;;5088996;28;20032;-77
2022/06/20 13:51:26;;;;;;;6.25;2.33;;;;;;;;;;5094078;28;20047;-77
2022/06/20 13:53:57;;;;;;;7.47;2.83;;;;;;;;;;5087181;28;20086;-77
2022/06/20 13:56:31;;;;;;;6.95;2.80;;;;;;;;;;5090263;28;20036;-81
2022/06/20 13:59:04;;;;;;;8.38;2.63;;;;;;;;;;5085333;28;20093;-75
2022/06/20 14:01:53;;;;;;;9.63;2.85;;;;;;;;;;5082147;28;20400;-75
2022/06/20 14:04:20;;;;;;;7.70;2.28;;;;;;;;;;5070890;28;20060;-74
2022/06/20 14:07:00;;;;;;;5.35;2.35;;;;;;;;;;5085964;28;20518;-76
2022/06/20 14:09:29;;;;;;;4.45;2.33;;;;;;;;;;5090251;28;20024;-74
2022/06/20 14:12:00;;;;;;;5.65;2.35;;;;;;;;;;5088044;28;20575;-74
2022/06/20 14:14:27;;;;;;;5.25;2.47;;;;;;;;;;5089133;28;20499;-76
2022/06/20 14:16:56;;;;;;;6.78;2.70;;;;;;;;;;5081468;28;20044;-75
2022/06/20 14:19:49;;;;;;;6.55;2.60;;;;;;;;;;5091656;28;20047;-75
2022/06/20 14:22:21;;;;;;;6.43;2.60;;;;;;;;;;5082277;28;20055;-75
2022/06/20 14:24:51;;;;;;;5.68;2.40;;;;;;;;;;5080540;28;20130;-79
2022/06/20 14:27:20;;;;;;;5.38;2.28;;;;;;;;;;5101694;28;20127;-79
2022/06/20 14:29:54;;;;;;;3.17;2.20;;;;;;;;;;5043976;28;1410574;-78
2022/06/20 14:32:39;;;;;;;6.60;2.85;;;;;;;;;;5067416;28;20040;-79
2022/06/20 14:35:20;;;;;;;;;;;;;;;;;;5090748;28;20038;-79
2022/06/20 14:37:46;;;;;;;7.80;2.50;;;;;;;;;;5084974;28;20328;-78
2022/06/20 14:40:23;;;;;;;5.65;2.40;;;;;;;;;;5092910;28;20043;-78
2022/06/20 14:42:59;;;;;;;5.72;2.20;;;;;;;;;;5091111;28;20096;-75
2022/06/20 14:45:28;;;;;;;5.55;2.33;;;;;;;;;;5090289;28;20675;-80
2022/06/20 14:47:54;;;;;;;4.43;2.30;;;;;;;;;;5088504;28;20046;-78
2022/06/20 14:50:26;;;;;;;38.85;11.95;;;;;;;;;;5092308;28;20039;-85
2022/06/20 14:52:57;;;;;;;6.03;2.80;;;;;;;;;;5076961;28;20067;-77
2022/06/20 14:55:23;;;;;;;5.20;2.38;;;;;;;;;;5091476;28;20031;-77
2022/06/20 14:57:53;;;;;;;8.10;2.33;;;;;;;;;;5085762;28;20514;-78
2022/06/20 15:00:26;;;;;;;6.75;2.47;;;;;;;;;;5085482;28;20039;-80
2022/06/20 15:02:54;;;;;;;4.32;2.33;;;;;;;;;;5083927;28;20050;-79
2022/06/20 15:05:24;;;;;;;6.18;2.67;;;;;;;;;;5070198;28;20035;-81
2022/06/20 15:07:52;;;;;;;6.22;2.75;;;;;;;;;;5085087;27;20111;-81
2022/06/20 15:10:18;;;;;;;5.32;2.22;;;;;;;;;;5088652;28;20039;-81
2022/06/20 15:12:46;;;;;;;5.05;2.75;;;;;;;;;;5076660;28;20074;-81
2022/06/20 15:15:13;;;;;;;6.25;2.58;;;;;;;;;;5089781;28;20122;-77
2022/06/20 15:17:45;;;;;;;7.35;2.83;;;;;;;;;;5092282;27;20570;-78
2022/06/20 15:20:18;;;;;;;6.28;2.97;;;;;;;;;;5080042;28;20044;-80
2022/06/20 15:22:51;;;;;;;6.15;2.70;;;;;;;;;;5077462;27;20037;-80
2022/06/20 15:25:45;;;;;;;6.90;2.60;;;;;;;;;;5088090;28;20464;-81
2022/06/20 15:28:17;;;;;;;6.30;2.83;;;;;;;;;;5080114;28;20063;-81
2022/06/20 15:30:55;;;;;;;5.72;3.05;;;;;;;;;;5067309;28;20044;-79